Time;durP1;ratioP1;P1;durP2;ratioP2;P2;SDS_P1;SDS_P2;PMS_P1;PMS_P2;Temp;Humidity;BMP_temperature;BMP_pressure;BME280_temperature;BME280_humidity;BME280_pressure;Samples;Min_cycle;Max_cycle;Signal;HPM_P1;HPM_P2
2023/11/16 00:00:42;;;;;;;9.63;6.32;;;9.20;99.90;;;;;;5111896;28;20230;-65
2023/11/16 00:03:11;;;;;;;7.55;5.88;;;9.20;99.90;;;;;;5111661;28;20292;-66
2023/11/16 00:05:38;;;;;;;10.60;6.35;;;9.20;99.90;;;;;;5110791;28;20200;-66
2023/11/16 00:08:07;;;;;;;15.35;6.20;;;9.20;99.90;;;;;;5109335;28;20210;-66
2023/11/16 00:10:34;;;;;;;9.55;6.10;;;9.20;99.90;;;;;;5109063;28;20204;-67
2023/11/16 00:13:01;;;;;;;13.93;6.97;;;9.20;99.90;;;;;;5106234;28;20224;-66
2023/11/16 00:15:28;;;;;;;15.20;6.18;;;9.20;99.90;;;;;;5107415;28;20201;-67
2023/11/16 00:17:55;;;;;;;12.13;6.10;;;9.20;99.90;;;;;;5106253;28;20224;-66
2023/11/16 00:20:22;;;;;;;13.93;6.20;;;9.20;99.90;;;;;;5101802;28;20243;-67
2023/11/16 00:22:48;;;;;;;12.18;6.32;;;9.20;99.90;;;;;;5096950;28;20698;-66
2023/11/16 00:25:17;;;;;;;8.73;6.82;;;9.20;99.90;;;;;;5096272;28;20204;-67
2023/11/16 00:27:44;;;;;;;10.55;6.07;;;9.20;99.90;;;;;;5096946;28;20552;-67
2023/11/16 00:30:13;;;;;;;8.93;6.32;;;9.20;99.90;;;;;;5100358;28;20661;-67
2023/11/16 00:32:40;;;;;;;10.55;6.30;;;9.20;99.90;;;;;;5100025;28;20220;-67
2023/11/16 00:35:08;;;;;;;8.35;5.95;;;9.20;99.90;;;;;;5100579;28;20214;-66
2023/11/16 00:37:36;;;;;;;10.95;6.38;;;9.20;99.90;;;;;;5099968;28;20636;-66
2023/11/16 00:40:04;;;;;;;13.55;6.50;;;9.20;99.90;;;;;;5100371;28;20207;-67
2023/11/16 00:42:35;;;;;;;6.28;5.68;;;9.10;99.90;;;;;;5099936;28;20265;-67
2023/11/16 00:45:02;;;;;;;6.50;5.78;;;9.10;99.90;;;;;;5100897;28;20687;-66
2023/11/16 00:47:29;;;;;;;10.32;5.68;;;9.20;99.90;;;;;;5104232;28;20235;-66
2023/11/16 00:49:56;;;;;;;7.57;5.30;;;9.10;99.90;;;;;;5103837;28;20247;-67
2023/11/16 00:52:24;;;;;;;12.48;5.47;;;9.10;99.90;;;;;;5101597;28;20251;-66
2023/11/16 00:54:51;;;;;;;6.97;6.22;;;9.10;99.90;;;;;;5099848;28;20234;-66
2023/11/16 00:57:20;;;;;;;7.80;5.25;;;9.10;99.90;;;;;;5099807;28;20225;-67
2023/11/16 00:59:48;;;;;;;10.13;5.55;;;9.10;99.90;;;;;;5100518;28;20201;-66
2023/11/16 01:02:15;;;;;;;10.73;5.60;;;9.10;99.90;;;;;;5098851;28;20243;-66
2023/11/16 01:04:42;;;;;;;7.43;5.22;;;9.10;99.90;;;;;;5098726;28;20200;-67
2023/11/16 01:07:10;;;;;;;7.63;5.22;;;9.00;99.90;;;;;;5099285;28;20202;-66
2023/11/16 01:09:37;;;;;;;8.93;5.20;;;9.00;99.90;;;;;;5099695;28;20208;-65
2023/11/16 01:12:11;;;;;;;9.18;5.30;;;9.00;99.90;;;;;;5099147;28;20227;-66
2023/11/16 01:14:39;;;;;;;8.85;5.20;;;8.90;99.90;;;;;;5099118;28;20188;-67
2023/11/16 01:17:11;;;;;;;6.53;5.10;;;8.90;99.90;;;;;;5098897;28;20619;-67
2023/11/16 01:19:45;;;;;;;5.50;4.93;;;9.00;99.90;;;;;;5099706;28;20231;-66
2023/11/16 01:22:15;;;;;;;15.52;5.07;;;9.00;99.90;;;;;;5099262;28;20286;-67
2023/11/16 01:24:44;;;;;;;12.40;5.45;;;9.00;99.90;;;;;;5099106;28;20290;-66
2023/11/16 01:27:15;;;;;;;5.47;4.57;;;9.00;99.90;;;;;;5099361;28;20199;-66
2023/11/16 01:29:44;;;;;;;6.82;4.65;;;9.00;99.90;;;;;;5099402;28;20193;-66
2023/11/16 01:32:12;;;;;;;8.73;5.03;;;9.00;99.90;;;;;;5099226;28;20223;-66
2023/11/16 01:34:42;;;;;;;12.52;4.80;;;9.00;99.90;;;;;;5099053;28;20210;-66
2023/11/16 01:37:10;;;;;;;6.40;4.60;;;9.00;99.90;;;;;;5099590;28;20232;-65
2023/11/16 01:39:38;;;;;;;5.88;5.30;;;9.00;99.90;;;;;;5098206;28;20200;-66
2023/11/16 01:42:06;;;;;;;6.68;4.63;;;9.00;99.90;;;;;;5099865;28;20262;-67
2023/11/16 01:44:33;;;;;;;7.07;5.05;;;9.00;99.90;;;;;;5100822;28;20200;-66
2023/11/16 01:47:00;;;;;;;8.05;5.18;;;9.10;99.90;;;;;;5099230;28;20227;-67
2023/11/16 01:49:28;;;;;;;8.77;4.80;;;9.10;99.90;;;;;;5098850;28;20296;-65
2023/11/16 01:51:57;;;;;;;6.40;4.68;;;9.10;99.90;;;;;;5100068;28;20232;-67
2023/11/16 01:54:24;;;;;;;7.65;5.00;;;9.00;99.90;;;;;;5101100;28;20204;-67
2023/11/16 01:56:52;;;;;;;6.57;4.75;;;9.00;99.90;;;;;;5098562;28;20550;-67
2023/11/16 01:59:19;;;;;;;6.15;5.00;;;9.00;99.90;;;;;;5097489;28;20228;-65
2023/11/16 02:01:47;;;;;;;5.53;5.03;;;9.00;99.90;;;;;;5098648;28;20233;-66
2023/11/16 02:04:15;;;;;;;6.32;5.45;;;9.00;99.90;;;;;;5100691;28;20191;-66
2023/11/16 02:06:43;;;;;;;9.23;5.53;;;9.00;99.90;;;;;;5104049;28;20230;-67
2023/11/16 02:09:11;;;;;;;6.60;4.90;;;9.00;99.90;;;;;;5099896;28;20200;-66
2023/11/16 02:11:38;;;;;;;6.07;4.85;;;9.00;99.90;;;;;;5101150;28;20216;-66
2023/11/16 02:14:05;;;;;;;7.50;5.35;;;9.00;99.90;;;;;;5100412;28;20712;-67
2023/11/16 02:16:32;;;;;;;6.53;5.00;;;9.00;99.90;;;;;;5103498;28;20206;-66
2023/11/16 02:19:12;;;;;;;8.43;4.43;;;9.00;99.90;;;;;;5104376;28;20217;-66
2023/11/16 02:21:41;;;;;;;9.98;5.95;;;9.00;99.90;;;;;;5103285;28;20580;-66
2023/11/16 02:24:12;;;;;;;12.88;6.55;;;8.90;99.90;;;;;;5100304;28;20204;-66
2023/11/16 02:26:40;;;;;;;8.60;5.40;;;8.80;99.90;;;;;;5098178;28;20189;-66
2023/11/16 02:29:07;;;;;;;8.00;5.57;;;8.80;99.90;;;;;;5098629;28;20208;-67
2023/11/16 02:31:35;;;;;;;8.93;6.20;;;8.70;99.90;;;;;;5098932;28;20307;-66
2023/11/16 02:34:02;;;;;;;10.55;5.45;;;8.70;99.90;;;;;;5097419;28;20285;-66
2023/11/16 02:36:28;;;;;;;9.52;7.03;;;8.70;99.90;;;;;;5097121;28;20204;-67
2023/11/16 02:38:55;;;;;;;13.65;5.65;;;8.70;99.90;;;;;;5097610;28;20311;-67
2023/11/16 02:41:24;;;;;;;18.92;6.45;;;8.70;99.90;;;;;;5097584;28;20200;-64
2023/11/16 02:43:51;;;;;;;7.97;5.60;;;8.70;99.90;;;;;;5096716;28;20585;-66
2023/11/16 02:46:19;;;;;;;9.85;6.68;;;8.70;99.90;;;;;;5101075;28;20196;-67
2023/11/16 02:48:45;;;;;;;6.63;5.70;;;8.80;99.90;;;;;;5101817;28;20196;-66
2023/11/16 02:51:14;;;;;;;9.93;6.15;;;8.80;99.90;;;;;;5100670;28;20208;-66
2023/11/16 02:53:41;;;;;;;7.35;5.90;;;8.80;99.90;;;;;;5100398;28;20218;-66
2023/11/16 02:56:08;;;;;;;12.05;6.22;;;8.80;99.90;;;;;;5102217;28;20666;-65
2023/11/16 02:58:41;;;;;;;7.18;6.28;;;8.70;99.90;;;;;;5102113;28;20212;-66
2023/11/16 03:01:08;;;;;;;7.70;5.10;;;8.70;99.90;;;;;;5100213;28;20184;-66
2023/11/16 03:03:36;;;;;;;7.60;5.65;;;8.70;99.90;;;;;;5102010;28;20199;-67
2023/11/16 03:06:04;;;;;;;11.27;5.53;;;8.70;99.90;;;;;;5100692;28;20234;-66
2023/11/16 03:08:31;;;;;;;9.13;5.35;;;8.70;99.90;;;;;;5100615;28;20196;-66
2023/11/16 03:11:00;;;;;;;7.10;5.50;;;8.80;99.90;;;;;;5101188;28;20696;-66
2023/11/16 03:13:28;;;;;;;8.30;5.88;;;8.80;99.90;;;;;;5100891;28;20297;-66
2023/11/16 03:15:56;;;;;;;5.93;4.15;;;8.80;99.90;;;;;;5099776;28;20208;-66
2023/11/16 03:18:23;;;;;;;6.25;4.30;;;8.80;99.90;;;;;;5101272;28;20225;-66
2023/11/16 03:20:50;;;;;;;15.23;5.43;;;8.90;99.90;;;;;;5101161;28;20623;-66
2023/11/16 03:23:16;;;;;;;8.02;4.57;;;8.90;99.90;;;;;;5098172;28;20228;-66
2023/11/16 03:25:43;;;;;;;9.93;5.10;;;8.90;99.90;;;;;;5099274;28;20228;-66
2023/11/16 03:28:10;;;;;;;6.60;4.40;;;8.90;99.90;;;;;;5097797;28;20207;-66
2023/11/16 03:30:38;;;;;;;13.38;5.28;;;8.90;99.90;;;;;;5097497;28;20203;-65
2023/11/16 03:33:08;;;;;;;17.08;4.20;;;8.90;99.90;;;;;;5097578;28;20224;-66
2023/11/16 03:35:35;;;;;;;5.57;3.85;;;8.90;99.90;;;;;;5097901;28;20185;-65
2023/11/16 03:38:02;;;;;;;5.13;4.25;;;8.90;99.90;;;;;;5095629;28;20628;-66
2023/11/16 03:40:30;;;;;;;10.38;4.75;;;8.90;99.90;;;;;;5093856;28;20240;-66
2023/11/16 03:42:56;;;;;;;9.10;4.05;;;8.90;99.90;;;;;;5094118;28;20220;-66
2023/11/16 03:45:23;;;;;;;5.75;3.67;;;8.90;99.90;;;;;;5095117;28;20215;-66
2023/11/16 03:47:50;;;;;;;5.85;3.50;;;8.90;99.90;;;;;;5094072;28;20200;-66
2023/11/16 03:50:18;;;;;;;5.18;3.63;;;9.00;99.90;;;;;;5093714;28;20208;-66
2023/11/16 03:52:46;;;;;;;5.35;3.40;;;9.00;99.90;;;;;;5093780;28;20226;-66
2023/11/16 03:55:12;;;;;;;4.63;3.08;;;9.00;99.90;;;;;;5094012;28;20637;-67
2023/11/16 03:57:39;;;;;;;6.43;3.13;;;9.00;99.90;;;;;;5093973;28;20300;-67
2023/11/16 04:00:09;;;;;;;4.40;2.47;;;9.00;99.90;;;;;;5094110;28;20574;-66
2023/11/16 04:02:36;;;;;;;5.65;2.72;;;9.00;99.90;;;;;;5093303;28;20236;-67
2023/11/16 04:05:05;;;;;;;3.63;2.38;;;9.00;99.90;;;;;;5094063;28;20196;-66
2023/11/16 04:07:34;;;;;;;8.25;2.70;;;9.00;99.90;;;;;;5093685;28;20513;-67
2023/11/16 04:12:33;;;;;;;6.10;2.80;;;9.00;99.90;;;;;;5091769;28;20553;-66
2023/11/16 04:14:59;;;;;;;5.53;2.05;;;9.00;99.90;;;;;;5091320;28;20200;-66
2023/11/16 04:17:27;;;;;;;2.15;1.65;;;9.00;99.90;;;;;;5091119;28;20196;-67
2023/11/16 04:19:54;;;;;;;3.90;1.30;;;9.00;99.90;;;;;;5090645;28;20208;-65
2023/11/16 04:22:22;;;;;;;1.30;1.10;;;9.00;99.90;;;;;;5090669;28;20732;-67
2023/11/16 04:24:51;;;;;;;3.97;1.23;;;9.00;99.90;;;;;;5091312;28;20250;-67
2023/11/16 04:27:18;;;;;;;1.67;1.27;;;9.00;99.90;;;;;;5091059;28;20220;-66
2023/11/16 04:29:46;;;;;;;3.42;1.15;;;9.00;99.90;;;;;;5091062;28;20211;-67
2023/11/16 04:32:14;;;;;;;3.88;1.30;;;9.00;99.90;;;;;;5090683;28;20306;-66
2023/11/16 04:34:42;;;;;;;2.38;1.50;;;9.00;99.90;;;;;;5090497;28;20693;-65
2023/11/16 04:37:09;;;;;;;5.38;1.75;;;9.00;99.90;;;;;;5090795;28;20622;-68
2023/11/16 04:39:37;;;;;;;8.95;1.20;;;9.00;99.90;;;;;;5090812;28;20196;-66
2023/11/16 04:42:04;;;;;;;7.05;1.70;;;9.00;99.90;;;;;;5090610;28;20228;-66
2023/11/16 04:44:32;;;;;;;5.10;1.60;;;9.00;99.90;;;;;;5091410;28;20211;-67
2023/11/16 04:47:00;;;;;;;2.47;1.30;;;8.90;99.90;;;;;;5091055;28;20204;-67
2023/11/16 04:49:27;;;;;;;8.25;2.05;;;8.90;99.90;;;;;;5095780;28;20201;-65
2023/11/16 04:51:53;;;;;;;2.72;2.10;;;8.90;99.90;;;;;;5095827;28;20228;-66
2023/11/16 04:54:20;;;;;;;8.75;1.90;;;8.80;99.90;;;;;;5094967;28;20204;-66
2023/11/16 04:56:47;;;;;;;3.70;1.55;;;8.80;99.90;;;;;;5091927;28;20670;-66
2023/11/16 04:59:14;;;;;;;4.65;2.20;;;8.80;99.90;;;;;;5090745;28;20211;-66
2023/11/16 05:01:41;;;;;;;3.53;1.58;;;8.80;99.90;;;;;;5090073;28;20216;-65
2023/11/16 05:04:09;;;;;;;5.88;1.98;;;8.80;99.90;;;;;;5090995;28;20197;-66
2023/11/16 05:06:40;;;;;;;5.43;1.83;;;8.70;99.90;;;;;;5094434;28;20196;-66
2023/11/16 05:09:08;;;;;;;3.67;2.03;;;8.50;99.90;;;;;;5095261;28;20195;-65
2023/11/16 05:11:35;;;;;;;7.97;2.45;;;8.30;99.90;;;;;;5097422;28;20652;-65
2023/11/16 05:14:03;;;;;;;3.58;2.38;;;8.20;99.90;;;;;;5095689;28;20200;-65
2023/11/16 05:16:29;;;;;;;5.03;3.00;;;8.10;99.90;;;;;;5095342;28;20200;-66
2023/11/16 05:18:56;;;;;;;4.82;2.42;;;8.00;99.90;;;;;;5093201;28;20207;-66
2023/11/16 05:21:24;;;;;;;3.47;2.45;;;8.00;99.90;;;;;;5091215;28;20223;-66
2023/11/16 05:23:51;;;;;;;3.95;3.15;;;7.90;99.90;;;;;;5077242;28;20212;-67
2023/11/16 05:26:18;;;;;;;15.55;3.25;;;7.90;99.90;;;;;;5077417;28;20197;-66
2023/11/16 05:28:44;;;;;;;7.05;3.40;;;7.90;99.90;;;;;;5077741;28;20220;-66
2023/11/16 05:31:11;;;;;;;9.15;3.35;;;7.90;99.90;;;;;;5077436;28;20221;-67
2023/11/16 05:33:38;;;;;;;5.55;2.47;;;7.80;99.90;;;;;;5077369;28;20201;-66
2023/11/16 05:36:06;;;;;;;7.70;3.00;;;7.80;99.90;;;;;;5077012;28;20196;-66
2023/11/16 05:38:34;;;;;;;4.90;2.70;;;7.80;99.90;;;;;;5085006;28;20205;-66
2023/11/16 05:41:02;;;;;;;8.90;2.58;;;7.80;99.90;;;;;;5084326;28;20197;-65
2023/11/16 05:43:30;;;;;;;6.80;1.70;;;7.70;99.90;;;;;;5081638;28;20272;-65
2023/11/16 05:45:56;;;;;;;1.50;1.40;;;7.70;99.90;;;;;;5080129;28;20197;-64
2023/11/16 05:48:23;;;;;;;3.38;1.50;;;7.60;99.90;;;;;;5080645;28;20201;-65
2023/11/16 05:50:50;;;;;;;4.07;2.70;;;7.60;99.90;;;;;;5082631;28;20204;-66
2023/11/16 05:53:18;;;;;;;4.18;1.30;;;7.60;99.90;;;;;;5086308;28;20225;-66
2023/11/16 05:55:46;;;;;;;4.15;1.75;;;7.50;99.90;;;;;;5085473;28;20319;-66
2023/11/16 05:58:13;;;;;;;5.28;1.55;;;7.50;99.90;;;;;;5081544;28;20197;-66
2023/11/16 06:00:41;;;;;;;4.60;1.48;;;7.50;99.90;;;;;;5080396;28;20268;-66
2023/11/16 06:03:08;;;;;;;2.47;1.70;;;7.40;99.90;;;;;;5080642;28;20225;-66
2023/11/16 06:05:35;;;;;;;4.07;1.48;;;7.40;99.90;;;;;;5081819;28;20256;-65
2023/11/16 06:08:02;;;;;;;2.58;1.40;;;7.40;99.90;;;;;;5080278;28;20251;-65
2023/11/16 06:10:29;;;;;;;7.18;1.77;;;7.40;99.90;;;;;;5081501;28;20296;-66
2023/11/16 06:12:59;;;;;;;12.98;2.35;;;7.40;99.90;;;;;;5080122;28;20229;-65
2023/11/16 06:15:28;;;;;;;5.10;1.55;;;7.50;99.90;;;;;;5079149;28;20213;-65
2023/11/16 06:17:56;;;;;;;4.40;1.50;;;7.50;99.90;;;;;;5079853;28;20236;-65
2023/11/16 06:20:23;;;;;;;2.83;1.65;;;7.50;99.90;;;;;;5079066;28;20205;-66
2023/11/16 06:22:50;;;;;;;2.92;1.60;;;7.50;99.90;;;;;;5081294;28;20227;-65
2023/11/16 06:25:17;;;;;;;3.95;1.20;;;7.60;99.90;;;;;;5083339;28;20208;-66
2023/11/16 06:27:45;;;;;;;4.25;1.83;;;7.60;99.90;;;;;;5082788;28;20209;-66
2023/11/16 06:30:14;;;;;;;6.97;2.15;;;7.60;99.90;;;;;;5083926;28;20201;-65
2023/11/16 06:32:42;;;;;;;5.70;2.60;;;7.60;99.90;;;;;;5082737;28;20228;-66
2023/11/16 06:35:10;;;;;;;4.00;1.90;;;7.60;99.90;;;;;;5086369;28;20205;-67
2023/11/16 06:37:37;;;;;;;5.00;1.83;;;7.60;99.90;;;;;;5082754;28;20202;-66
2023/11/16 06:40:05;;;;;;;4.15;2.17;;;7.50;99.90;;;;;;5084610;28;20654;-66
2023/11/16 06:42:36;;;;;;;5.80;2.28;;;7.50;99.90;;;;;;5084134;28;20217;-68
2023/11/16 06:45:05;;;;;;;3.10;1.63;;;7.40;99.90;;;;;;5081451;28;20197;-67
2023/11/16 06:47:33;;;;;;;5.38;1.65;;;7.40;99.90;;;;;;5078037;28;20205;-66
2023/11/16 06:50:02;;;;;;;4.03;1.55;;;7.50;99.90;;;;;;5077799;28;20197;-66
2023/11/16 06:52:29;;;;;;;3.35;1.60;;;7.50;99.90;;;;;;5077318;28;20225;-65
2023/11/16 06:54:56;;;;;;;3.35;1.63;;;7.50;99.90;;;;;;5077290;28;20211;-65
2023/11/16 06:57:26;;;;;;;4.40;1.80;;;7.50;99.90;;;;;;5076539;28;20208;-66
2023/11/16 06:59:53;;;;;;;1.85;1.58;;;7.50;99.90;;;;;;5077189;28;20215;-66
2023/11/16 07:02:21;;;;;;;4.03;1.60;;;7.40;99.90;;;;;;5077507;28;20217;-66
2023/11/16 07:04:49;;;;;;;3.15;1.40;;;7.40;99.90;;;;;;5076981;28;20205;-66
2023/11/16 07:07:16;;;;;;;3.08;1.77;;;7.30;99.90;;;;;;5076948;28;20557;-65
2023/11/16 07:09:46;;;;;;;4.13;1.73;;;7.20;99.90;;;;;;5078150;28;20204;-66
2023/11/16 07:12:13;;;;;;;7.25;1.50;;;7.20;99.90;;;;;;5079214;28;20304;-66
2023/11/16 07:14:40;;;;;;;4.43;1.67;;;7.10;99.90;;;;;;5080878;28;20201;-65
2023/11/16 07:17:10;;;;;;;3.35;1.45;;;7.00;99.90;;;;;;5078308;28;20204;-65
2023/11/16 07:19:38;;;;;;;8.73;2.65;;;7.00;99.90;;;;;;5076576;28;20243;-65
2023/11/16 07:22:08;;;;;;;3.08;1.55;;;7.00;99.90;;;;;;5076871;28;20213;-65
2023/11/16 07:24:36;;;;;;;3.75;1.52;;;7.10;99.90;;;;;;5077207;28;20205;-66
2023/11/16 07:27:03;;;;;;;3.05;1.40;;;7.10;99.90;;;;;;5077354;28;20215;-65
2023/11/16 07:29:30;;;;;;;1.65;1.25;;;7.10;99.90;;;;;;5076309;28;20208;-65
2023/11/16 07:31:58;;;;;;;3.75;1.63;;;7.20;99.90;;;;;;5076109;28;20229;-66
2023/11/16 07:34:25;;;;;;;1.50;1.00;;;7.20;99.90;;;;;;5077144;28;20213;-65
2023/11/16 07:36:52;;;;;;;8.35;1.23;;;7.10;99.90;;;;;;5076477;28;20240;-66
2023/11/16 07:39:21;;;;;;;4.07;1.40;;;7.10;99.90;;;;;;5076125;28;20284;-66
2023/11/16 07:41:47;;;;;;;5.13;1.17;;;7.10;99.90;;;;;;5075762;28;20335;-66
2023/11/16 07:44:14;;;;;;;8.98;1.67;;;7.10;99.90;;;;;;5076351;28;20200;-65
2023/11/16 07:46:41;;;;;;;5.55;1.55;;;7.30;99.90;;;;;;5076187;28;20197;-66
2023/11/16 07:49:09;;;;;;;3.15;1.15;;;7.50;99.90;;;;;;5076256;28;20235;-65
2023/11/16 07:51:36;;;;;;;5.00;1.30;;;7.40;99.90;;;;;;5082262;28;20224;-65
2023/11/16 07:54:04;;;;;;;3.42;1.27;;;7.40;99.90;;;;;;5089430;28;20264;-66
2023/11/16 07:56:32;;;;;;;3.08;0.90;;;7.50;99.90;;;;;;5086412;28;20269;-66
2023/11/16 07:58:59;;;;;;;3.00;1.00;;;7.60;99.90;;;;;;5081257;28;20225;-66
2023/11/16 08:01:29;;;;;;;5.72;1.30;;;7.60;99.90;;;;;;5077133;28;20711;-66
2023/11/16 08:03:55;;;;;;;8.35;1.40;;;7.50;99.90;;;;;;5077280;28;20209;-66
2023/11/16 08:06:24;;;;;;;1.77;1.20;;;7.40;99.90;;;;;;5077861;28;20196;-66
2023/11/16 08:08:52;;;;;;;5.95;1.38;;;7.40;99.90;;;;;;5076789;28;20690;-65
2023/11/16 08:11:19;;;;;;;1.83;1.00;;;7.30;99.90;;;;;;5076437;28;20209;-64
2023/11/16 08:13:48;;;;;;;4.63;1.05;;;7.30;99.90;;;;;;5076676;28;20257;-65
2023/11/16 08:16:19;;;;;;;5.13;1.30;;;7.30;99.90;;;;;;5076930;28;20197;-65
2023/11/16 08:18:46;;;;;;;4.05;1.15;;;7.30;99.90;;;;;;5076393;28;20205;-65
2023/11/16 08:21:13;;;;;;;4.13;1.48;;;7.30;99.90;;;;;;5076133;28;20291;-66
2023/11/16 08:23:43;;;;;;;3.53;1.80;;;7.30;99.90;;;;;;5076300;28;20560;-65
2023/11/16 08:26:11;;;;;;;6.03;1.30;;;7.30;99.90;;;;;;5076480;28;20224;-65
2023/11/16 08:28:39;;;;;;;3.45;1.10;;;7.30;99.90;;;;;;5076611;28;20223;-65
2023/11/16 08:31:07;;;;;;;4.28;1.80;;;7.30;99.90;;;;;;5077314;28;20215;-66
2023/11/16 08:33:35;;;;;;;4.20;1.70;;;7.30;99.90;;;;;;5077101;28;20213;-65
2023/11/16 08:36:03;;;;;;;3.00;1.00;;;7.30;99.90;;;;;;5079492;28;20223;-65
2023/11/16 08:38:29;;;;;;;5.15;1.58;;;7.30;99.90;;;;;;5086426;28;20215;-65
2023/11/16 08:40:59;;;;;;;2.75;1.15;;;7.30;99.90;;;;;;5083830;28;20205;-65
2023/11/16 08:43:25;;;;;;;4.35;1.25;;;7.40;99.90;;;;;;5079814;28;20745;-65
2023/11/16 08:45:55;;;;;;;2.60;1.40;;;7.30;99.90;;;;;;5077120;28;20205;-65
2023/11/16 08:48:32;;;;;;;2.35;1.02;;;7.40;99.90;;;;;;5076249;28;20201;-65
2023/11/16 08:51:04;;;;;;;3.95;1.35;;;7.40;99.90;;;;;;5076226;28;20189;-67
2023/11/16 08:53:32;;;;;;;5.68;1.10;;;7.40;99.90;;;;;;5076783;28;20205;-65
2023/11/16 08:56:03;;;;;;;2.30;0.80;;;7.40;99.90;;;;;;5077181;28;20724;-65
2023/11/16 08:58:31;;;;;;;2.95;1.08;;;7.40;99.90;;;;;;5079954;28;20196;-65
2023/11/16 09:01:02;;;;;;;3.42;1.38;;;7.50;99.90;;;;;;5081359;28;20201;-66
2023/11/16 09:03:33;;;;;;;3.33;0.90;;;7.50;99.90;;;;;;5080932;28;20200;-65
2023/11/16 09:06:02;;;;;;;6.20;1.30;;;7.50;99.90;;;;;;5080870;28;20609;-65
2023/11/16 09:08:29;;;;;;;3.40;1.20;;;7.50;99.90;;;;;;5086555;28;20227;-66
2023/11/16 09:10:56;;;;;;;2.95;1.35;;;7.50;99.90;;;;;;5090490;28;20303;-65
2023/11/16 09:13:23;;;;;;;5.55;1.08;;;7.60;99.90;;;;;;5085181;28;20225;-64
2023/11/16 09:15:50;;;;;;;3.08;1.45;;;7.70;99.90;;;;;;5079978;28;20200;-65
2023/11/16 09:18:17;;;;;;;3.38;1.15;;;7.80;99.90;;;;;;5082022;28;20287;-65
2023/11/16 09:20:46;;;;;;;4.80;1.30;;;7.80;99.90;;;;;;5080386;28;20207;-64
2023/11/16 09:23:14;;;;;;;3.78;0.95;;;7.90;99.90;;;;;;5079323;28;20224;-64
2023/11/16 09:25:43;;;;;;;2.83;1.00;;;7.90;99.90;;;;;;5079091;28;20553;-66
2023/11/16 09:28:11;;;;;;;2.90;1.55;;;8.00;99.90;;;;;;5079080;28;20296;-66
2023/11/16 09:30:40;;;;;;;2.22;1.10;;;8.10;99.90;;;;;;5079735;28;20675;-64
2023/11/16 09:33:09;;;;;;;2.08;1.35;;;8.20;99.90;;;;;;5078682;28;20229;-65
2023/11/16 09:35:38;;;;;;;1.30;1.10;;;8.30;99.90;;;;;;5079412;28;20205;-66
2023/11/16 09:38:09;;;;;;;4.60;1.20;;;8.30;99.90;;;;;;5078965;28;20205;-65
2023/11/16 09:40:37;;;;;;;8.48;1.20;;;8.40;99.90;;;;;;5079446;28;20193;-65
2023/11/16 09:43:17;;;;;;;1.55;1.00;;;8.50;99.90;;;;;;5078419;28;20228;-64
2023/11/16 09:45:47;;;;;;;1.35;0.90;;;8.60;99.90;;;;;;5079342;28;20243;-66
2023/11/16 09:48:15;;;;;;;5.50;1.45;;;8.70;99.90;;;;;;5078601;28;20379;-65
2023/11/16 09:50:44;;;;;;;2.60;1.15;;;8.70;99.90;;;;;;5078266;28;20657;-66
2023/11/16 09:53:16;;;;;;;2.42;1.00;;;8.80;99.90;;;;;;5078218;28;20225;-65
2023/11/16 09:55:46;;;;;;;5.22;1.30;;;8.80;99.90;;;;;;5078365;28;20215;-66
2023/11/16 09:58:17;;;;;;;5.25;1.30;;;8.90;99.90;;;;;;5079685;28;20205;-65
2023/11/16 10:00:48;;;;;;;3.08;1.33;;;8.80;99.90;;;;;;5078766;28;20643;-65
2023/11/16 10:03:24;;;;;;;1.45;1.02;;;8.80;99.90;;;;;;5078664;28;20332;-66
2023/11/16 10:05:53;;;;;;;5.68;1.30;;;8.80;99.90;;;;;;5078133;28;20185;-65
2023/11/16 10:08:25;;;;;;;4.10;1.88;;;8.70;99.90;;;;;;5078241;28;20193;-66
2023/11/16 10:10:54;;;;;;;2.30;1.20;;;8.60;99.90;;;;;;5078501;28;20221;-65
2023/11/16 10:13:22;;;;;;;3.17;1.70;;;8.50;99.90;;;;;;5078258;28;20228;-65
2023/11/16 10:15:51;;;;;;;1.92;1.00;;;8.40;99.90;;;;;;5078779;28;20205;-65
2023/11/16 10:18:18;;;;;;;7.07;1.35;;;8.30;99.90;;;;;;5078769;28;20212;-64
2023/11/16 10:20:45;;;;;;;1.58;1.00;;;8.30;99.90;;;;;;5085331;28;20221;-65
2023/11/16 10:23:12;;;;;;;2.70;1.30;;;8.20;99.90;;;;;;5087799;28;20276;-66
2023/11/16 10:25:41;;;;;;;2.47;1.10;;;8.10;99.90;;;;;;5088346;28;20201;-65
2023/11/16 10:28:17;;;;;;;3.83;1.33;;;8.10;99.90;;;;;;5090709;28;20214;-65
2023/11/16 10:30:46;;;;;;;1.85;0.82;;;8.00;99.90;;;;;;5087075;28;20217;-65
2023/11/16 10:33:15;;;;;;;3.33;1.73;;;7.90;99.90;;;;;;5080759;28;20257;-65
2023/11/16 10:35:47;;;;;;;4.15;1.50;;;7.90;99.90;;;;;;5079910;28;20205;-64
2023/11/16 10:38:16;;;;;;;3.33;1.45;;;8.00;99.90;;;;;;5079249;28;20193;-65
2023/11/16 10:40:47;;;;;;;1.90;1.30;;;8.10;99.90;;;;;;5079171;28;20209;-65
2023/11/16 10:43:20;;;;;;;2.33;1.40;;;8.10;99.90;;;;;;5078760;28;20224;-65
2023/11/16 10:45:47;;;;;;;5.20;1.50;;;8.20;99.90;;;;;;5078114;28;20207;-65
2023/11/16 10:48:16;;;;;;;2.53;1.95;;;8.10;99.90;;;;;;5077915;28;20205;-65
2023/11/16 10:50:43;;;;;;;4.22;1.50;;;8.10;99.90;;;;;;5078746;28;20201;-65
2023/11/16 10:53:16;;;;;;;2.38;1.40;;;8.10;99.90;;;;;;5082356;28;20229;-64
2023/11/16 10:55:46;;;;;;;2.55;2.00;;;8.20;99.90;;;;;;5079767;28;20209;-65
2023/11/16 10:58:13;;;;;;;1.63;1.50;;;8.30;99.90;;;;;;5080130;28;20616;-65
2023/11/16 11:00:41;;;;;;;6.85;1.73;;;8.50;99.90;;;;;;5081118;28;20231;-64
2023/11/16 11:03:10;;;;;;;2.03;1.00;;;8.70;99.90;;;;;;5080605;28;20287;-65
2023/11/16 11:05:41;;;;;;;2.58;0.93;;;8.80;99.90;;;;;;5080605;28;20694;-66
2023/11/16 11:08:10;;;;;;;1.40;1.05;;;9.00;99.90;;;;;;5080797;28;20239;-64
2023/11/16 11:10:38;;;;;;;3.17;1.08;;;9.30;99.90;;;;;;5080147;28;20223;-64
2023/11/16 11:13:07;;;;;;;1.63;1.33;;;9.40;99.90;;;;;;5081027;28;20256;-65
2023/11/16 11:15:36;;;;;;;3.40;1.27;;;9.40;99.90;;;;;;5081754;28;20549;-65
2023/11/16 11:18:04;;;;;;;1.35;1.00;;;9.50;99.90;;;;;;5086765;28;20197;-65
2023/11/16 11:20:37;;;;;;;4.05;1.45;;;9.50;99.90;;;;;;5083524;28;20201;-66
2023/11/16 11:23:06;;;;;;;1.70;0.87;;;9.50;99.90;;;;;;5080540;28;20224;-65
2023/11/16 11:25:33;;;;;;;3.80;1.33;;;9.50;99.90;;;;;;5078847;28;20539;-65
2023/11/16 11:28:00;;;;;;;3.77;1.40;;;9.50;99.90;;;;;;5076987;28;20512;-66
2023/11/16 11:30:28;;;;;;;5.45;1.83;;;9.60;99.90;;;;;;5075784;28;20427;-67
2023/11/16 11:33:01;;;;;;;2.90;1.57;;;9.50;99.90;;;;;;5076613;28;20221;-66
2023/11/16 11:35:30;;;;;;;1.87;1.30;;;9.50;99.90;;;;;;5076060;28;20428;-65
2023/11/16 11:37:58;;;;;;;1.30;1.03;;;9.40;99.90;;;;;;5075728;28;20443;-67
2023/11/16 11:40:26;;;;;;;3.27;1.47;;;9.40;99.90;;;;;;5075369;28;20951;-66
2023/11/16 11:42:53;;;;;;;3.90;1.50;;;9.40;99.90;;;;;;5075952;28;20466;-65
2023/11/16 11:45:24;;;;;;;2.83;1.30;;;9.30;99.90;;;;;;5075862;28;20476;-65
2023/11/16 11:47:54;;;;;;;2.10;1.47;;;9.30;99.90;;;;;;5077908;28;20192;-66
2023/11/16 11:50:24;;;;;;;1.98;0.80;;;9.30;99.90;;;;;;5076641;28;20819;-66
2023/11/16 11:52:53;;;;;;;2.33;1.20;;;9.30;99.90;;;;;;5075838;28;20293;-66
2023/11/16 11:55:25;;;;;;;4.47;1.05;;;9.30;99.90;;;;;;5075343;28;20858;-66
2023/11/16 11:57:52;;;;;;;4.78;1.13;;;9.20;99.90;;;;;;5075690;28;20269;-65
2023/11/16 12:00:19;;;;;;;5.10;1.30;;;9.10;99.90;;;;;;5076110;28;20293;-66
2023/11/16 12:02:46;;;;;;;2.92;1.20;;;9.10;99.90;;;;;;5075558;28;20220;-65
2023/11/16 12:05:18;;;;;;;1.55;0.90;;;9.10;99.90;;;;;;5074576;28;20580;-67
2023/11/16 12:07:56;;;;;;;3.55;1.45;;;9.00;99.90;;;;;;5076541;28;20287;-66
2023/11/16 12:10:24;;;;;;;2.83;1.08;;;9.00;99.90;;;;;;5076398;28;22048;-64
2023/11/16 12:12:51;;;;;;;1.65;1.30;;;8.90;99.90;;;;;;5077082;28;20225;-66
2023/11/16 12:15:18;;;;;;;3.05;1.15;;;8.90;99.90;;;;;;5077556;28;20204;-66
2023/11/16 12:17:46;;;;;;;2.38;1.50;;;8.80;99.90;;;;;;5078132;28;20208;-66
2023/11/16 12:20:15;;;;;;;4.80;1.83;;;8.80;99.90;;;;;;5075564;28;20573;-65
2023/11/16 12:22:43;;;;;;;6.80;1.60;;;8.70;99.80;;;;;;5075757;28;20221;-66
2023/11/16 12:25:14;;;;;;;2.33;1.85;;;8.70;99.80;;;;;;5076202;28;20655;-66
2023/11/16 12:27:43;;;;;;;5.55;1.60;;;8.70;99.80;;;;;;5076038;28;20623;-66
2023/11/16 12:30:18;;;;;;;2.17;1.20;;;8.70;99.90;;;;;;5077049;28;20283;-66
2023/11/16 12:32:47;;;;;;;2.38;1.55;;;8.80;99.90;;;;;;5077692;28;20235;-67
2023/11/16 12:35:15;;;;;;;2.25;1.30;;;8.90;99.90;;;;;;5088889;28;20201;-67
2023/11/16 12:37:43;;;;;;;3.25;1.42;;;8.90;99.80;;;;;;5089247;28;20207;-67
2023/11/16 12:40:17;;;;;;;3.85;1.60;;;9.00;99.70;;;;;;5089365;28;20205;-67
2023/11/16 12:42:44;;;;;;;2.60;1.15;;;9.00;99.40;;;;;;5089815;28;20220;-67
2023/11/16 12:45:11;;;;;;;1.65;1.40;;;9.00;99.30;;;;;;5088890;28;20545;-66
2023/11/16 12:47:38;;;;;;;2.53;1.23;;;9.00;99.10;;;;;;5090186;28;20212;-66
2023/11/16 12:50:06;;;;;;;1.60;1.20;;;9.00;99.10;;;;;;5090256;28;20201;-67
2023/11/16 12:52:34;;;;;;;5.70;1.20;;;9.00;99.20;;;;;;5086489;28;20328;-66
2023/11/16 12:55:04;;;;;;;2.35;1.33;;;9.00;99.20;;;;;;5085890;28;20243;-65
2023/11/16 12:57:31;;;;;;;4.45;1.60;;;9.10;99.40;;;;;;5087914;28;20205;-66
2023/11/16 12:59:58;;;;;;;3.45;1.60;;;9.10;99.40;;;;;;5087144;28;20240;-67
2023/11/16 13:02:25;;;;;;;1.70;1.08;;;9.10;99.50;;;;;;5085853;28;20247;-65